Time;durP1;ratioP1;P1;durP2;ratioP2;P2;SDS_P1;SDS_P2;PMS_P1;PMS_P2;Temp;Humidity;BMP_temperature;BMP_pressure;BME280_temperature;BME280_humidity;BME280_pressure;Samples;Min_cycle;Max_cycle;Signal;HPM_P1;HPM_P2
2023/06/19 00:01:29;;;;;;;10.52;8.98;;;;;23.90;98174.00;;;;5073477;28;20452;-62
2023/06/19 00:03:56;;;;;;;11.05;9.98;;;;;23.90;98176.00;;;;5073670;28;20449;-62
2023/06/19 00:06:23;;;;;;;9.40;8.50;;;;;23.90;98172.00;;;;5072035;28;20052;-62
2023/06/19 00:08:49;;;;;;;10.02;8.73;;;;;23.90;98156.00;;;;5073248;28;20076;-62
2023/06/19 00:11:16;;;;;;;9.45;8.55;;;;;23.90;98156.00;;;;5072060;28;20045;-62
2023/06/19 00:13:42;;;;;;;11.65;10.55;;;;;23.90;98159.00;;;;5073323;28;20050;-61
2023/06/19 00:16:09;;;;;;;10.90;8.45;;;;;23.90;98167.00;;;;5073359;28;20047;-61
2023/06/19 00:18:39;;;;;;;9.55;8.63;;;;;23.90;98160.00;;;;5071783;28;20044;-62
2023/06/19 00:21:08;;;;;;;9.52;8.63;;;;;24.00;98162.00;;;;5073171;28;20074;-61
2023/06/19 00:23:35;;;;;;;9.23;8.18;;;;;24.00;98165.00;;;;5071923;28;20131;-61
2023/06/19 00:26:01;;;;;;;9.55;8.57;;;;;24.00;98166.00;;;;5071830;28;20483;-61
2023/06/19 00:28:28;;;;;;;8.77;7.88;;;;;24.10;98163.00;;;;5073042;28;20480;-61
2023/06/19 00:30:55;;;;;;;9.63;8.73;;;;;24.10;98171.00;;;;5071241;28;20569;-62
2023/06/19 00:33:21;;;;;;;9.68;8.68;;;;;24.00;98202.00;;;;5072269;28;20068;-61
2023/06/19 00:35:52;;;;;;;8.45;7.70;;;;;24.00;98201.00;;;;5071897;28;20051;-62
2023/06/19 00:38:18;;;;;;;8.70;7.95;;;;;23.90;98197.00;;;;5072813;28;20036;-61
2023/06/19 00:40:45;;;;;;;9.35;8.00;;;;;23.80;98196.00;;;;5071436;28;20052;-61
2023/06/19 00:43:12;;;;;;;8.27;7.47;;;;;23.70;98192.00;;;;5072875;28;20063;-61
2023/06/19 00:45:38;;;;;;;8.70;7.90;;;;;23.70;98204.00;;;;5054848;28;20546;-61
2023/06/19 00:48:05;;;;;;;8.35;7.55;;;;;23.70;98203.00;;;;5054735;28;20044;-61
2023/06/19 00:50:33;;;;;;;8.75;7.22;;;;;23.60;98214.00;;;;5072249;28;20489;-61
2023/06/19 00:53:03;;;;;;;9.55;7.78;;;;;23.60;98213.00;;;;5071335;28;20131;-62
2023/06/19 00:55:32;;;;;;;8.45;7.65;;;;;23.50;98224.00;;;;5072715;28;20044;-62
2023/06/19 00:58:00;;;;;;;9.32;7.43;;;;;23.50;98226.00;;;;5054867;28;20106;-62
2023/06/19 01:00:27;;;;;;;8.60;7.50;;;;;23.40;98235.00;;;;5072910;28;20048;-62
2023/06/19 01:02:56;;;;;;;7.97;7.18;;;;;23.40;98221.00;;;;5055575;28;20049;-62
2023/06/19 01:05:22;;;;;;;8.57;7.75;;;;;23.30;98226.00;;;;5057153;28;20489;-61
2023/06/19 01:07:49;;;;;;;8.88;7.70;;;;;23.30;98230.00;;;;5057415;28;20110;-62
2023/06/19 01:10:21;;;;;;;8.52;7.63;;;;;23.20;98224.00;;;;5074270;28;20052;-61
2023/06/19 01:13:14;;;;;;;9.90;7.10;;;;;23.20;98220.00;;;;5073768;28;20041;-62
2023/06/19 01:15:42;;;;;;;7.60;6.90;;;;;23.20;98225.00;;;;5065157;28;20056;-62
2023/06/19 01:18:11;;;;;;;10.55;7.03;;;;;23.20;98216.00;;;;5074548;28;20116;-62
2023/06/19 01:20:38;;;;;;;8.18;6.70;;;;;23.20;98218.00;;;;5057930;28;20098;-62
2023/06/19 01:23:11;;;;;;;11.07;7.55;;;;;23.20;98205.00;;;;5056156;28;20055;-61
2023/06/19 01:25:39;;;;;;;6.35;5.75;;;;;23.20;98195.00;;;;5077229;28;20060;-61
2023/06/19 01:28:10;;;;;;;6.97;5.53;;;;;23.10;98189.00;;;;5073694;28;20052;-62
2023/06/19 01:30:40;;;;;;;6.03;5.45;;;;;23.20;98178.00;;;;5072874;28;20040;-63
2023/06/19 01:33:20;;;;;;;5.30;4.80;;;;;23.20;98190.00;;;;5072602;28;20072;-63
2023/06/19 01:35:49;;;;;;;4.40;4.00;;;;;23.20;98179.00;;;;5073755;28;20036;-62
2023/06/19 01:38:17;;;;;;;4.70;4.30;;;;;23.10;98184.00;;;;5072538;28;20067;-63
2023/06/19 01:40:44;;;;;;;4.97;4.47;;;;;23.00;98192.00;;;;5074556;28;20041;-62
2023/06/19 01:43:11;;;;;;;4.82;4.30;;;;;22.90;98201.00;;;;5058797;28;20044;-63
2023/06/19 01:45:39;;;;;;;4.43;4.03;;;;;22.90;98205.00;;;;5080085;28;20127;-62
2023/06/19 01:48:05;;;;;;;4.00;3.70;;;;;22.90;98204.00;;;;5077538;28;20138;-62
2023/06/19 01:50:32;;;;;;;4.47;4.07;;;;;22.90;98209.00;;;;5060770;28;20413;-63
2023/06/19 01:52:59;;;;;;;4.97;4.22;;;;;22.90;98222.00;;;;5060697;28;20112;-62
2023/06/19 01:55:25;;;;;;;4.80;4.03;;;;;22.90;98208.00;;;;5077895;28;20079;-63
2023/06/19 01:57:52;;;;;;;4.65;4.25;;;;;23.00;98207.00;;;;5076576;28;20135;-63
2023/06/19 02:00:19;;;;;;;4.07;3.67;;;;;23.10;98195.00;;;;5058152;28;20572;-64
2023/06/19 02:02:45;;;;;;;4.32;3.97;;;;;23.10;98213.00;;;;5076011;28;20040;-63
2023/06/19 02:05:13;;;;;;;4.30;4.00;;;;;23.00;98204.00;;;;5075677;28;20068;-64
2023/06/19 02:07:39;;;;;;;4.85;3.58;;;;;23.00;98207.00;;;;5076377;28;20062;-63
2023/06/19 02:10:08;;;;;;;4.63;3.75;;;;;23.10;98206.00;;;;5075207;28;20048;-63
2023/06/19 02:12:35;;;;;;;4.60;3.45;;;;;23.10;98206.00;;;;5077070;28;20036;-62
2023/06/19 02:15:01;;;;;;;3.88;3.55;;;;;23.10;98214.00;;;;5079246;28;20040;-62
2023/06/19 02:17:28;;;;;;;3.85;3.40;;;;;23.20;98224.00;;;;5060753;28;20075;-62
2023/06/19 02:19:55;;;;;;;3.38;3.08;;;;;23.20;98228.00;;;;5075635;28;20513;-62
2023/06/19 02:22:23;;;;;;;4.88;3.53;;;;;23.10;98224.00;;;;5075767;28;20041;-61
2023/06/19 02:24:49;;;;;;;4.43;4.03;;;;;23.10;98223.00;;;;5077127;28;20113;-63
2023/06/19 02:27:16;;;;;;;3.33;3.03;;;;;23.10;98225.00;;;;5077698;28;20574;-62
2023/06/19 02:29:44;;;;;;;3.85;3.53;;;;;23.00;98233.00;;;;5077830;28;20045;-64
2023/06/19 02:32:11;;;;;;;3.85;3.55;;;;;23.00;98230.00;;;;5077271;28;20045;-64
2023/06/19 02:34:37;;;;;;;2.95;2.75;;;;;23.00;98246.00;;;;5076339;28;20051;-63
2023/06/19 02:37:05;;;;;;;3.03;2.72;;;;;23.00;98237.00;;;;5077191;28;20458;-63
2023/06/19 02:39:32;;;;;;;3.20;2.90;;;;;22.90;98238.00;;;;5077192;28;20068;-63
2023/06/19 02:41:59;;;;;;;3.25;2.95;;;;;22.90;98242.00;;;;5077484;28;20052;-62
2023/06/19 02:44:27;;;;;;;3.08;2.65;;;;;22.80;98259.00;;;;5083279;28;20052;-62
2023/06/19 02:46:54;;;;;;;2.65;2.45;;;;;22.70;98258.00;;;;5086253;28;20052;-62
2023/06/19 02:49:21;;;;;;;3.03;2.50;;;;;22.70;98262.00;;;;5078564;28;20049;-61
2023/06/19 02:51:48;;;;;;;2.72;2.47;;;;;22.70;98263.00;;;;5075986;28;20108;-62
2023/06/19 02:54:15;;;;;;;3.28;2.90;;;;;22.70;98269.00;;;;5059165;28;20049;-62
2023/06/19 02:56:41;;;;;;;2.78;2.58;;;;;22.70;98271.00;;;;5075931;28;20053;-63
2023/06/19 02:59:08;;;;;;;3.53;2.60;;;;;22.70;98275.00;;;;5076530;28;20056;-62
2023/06/19 03:01:35;;;;;;;2.72;2.45;;;;;22.70;98279.00;;;;5060373;28;20055;-62
2023/06/19 03:04:01;;;;;;;2.67;2.47;;;;;22.70;98281.00;;;;5076722;28;20033;-62
2023/06/19 03:06:28;;;;;;;3.30;2.20;;;;;22.80;98281.00;;;;5079033;28;20044;-62
2023/06/19 03:08:56;;;;;;;3.45;2.55;;;;;22.80;98288.00;;;;5076452;28;20539;-62
2023/06/19 03:11:23;;;;;;;2.45;2.08;;;;;22.70;98291.00;;;;5077541;28;20040;-61
2023/06/19 03:13:52;;;;;;;2.65;2.45;;;;;22.80;98295.00;;;;5076680;28;20091;-64
2023/06/19 03:16:20;;;;;;;3.05;2.63;;;;;22.80;98294.00;;;;5076313;28;20456;-63
2023/06/19 03:18:48;;;;;;;3.05;2.40;;;;;22.80;98292.00;;;;5075499;28;20040;-63
2023/06/19 03:21:19;;;;;;;2.50;2.30;;;;;22.80;98289.00;;;;5075710;28;20151;-63
2023/06/19 03:23:48;;;;;;;2.33;2.13;;;;;22.80;98287.00;;;;5059664;28;20049;-64
2023/06/19 03:26:15;;;;;;;3.97;2.40;;;;;22.70;98293.00;;;;5076033;28;20144;-63
2023/06/19 03:28:42;;;;;;;2.60;2.40;;;;;22.70;98302.00;;;;5074388;28;20048;-62
2023/06/19 03:31:09;;;;;;;2.70;2.30;;;;;22.60;98318.00;;;;5059081;28;20153;-62
2023/06/19 03:33:36;;;;;;;5.18;2.65;;;;;22.50;98314.00;;;;5056989;28;20037;-62
2023/06/19 03:36:04;;;;;;;3.15;2.63;;;;;22.40;98313.00;;;;5073978;28;20091;-62
2023/06/19 03:38:49;;;;;;;3.28;2.85;;;;;22.40;98317.00;;;;5059294;28;20114;-62
2023/06/19 03:41:19;;;;;;;2.67;2.33;;;;;22.40;98318.00;;;;5073233;28;20072;-63
2023/06/19 03:43:46;;;;;;;2.65;2.45;;;;;22.40;98326.00;;;;5056555;28;20067;-63
2023/06/19 03:46:13;;;;;;;2.97;2.67;;;;;22.40;98310.00;;;;5073009;28;20049;-62
2023/06/19 03:48:40;;;;;;;2.85;2.58;;;;;22.50;98306.00;;;;5072926;28;20052;-62
2023/06/19 03:51:07;;;;;;;4.20;2.72;;;;;22.60;98312.00;;;;5056145;28;20080;-62
2023/06/19 03:53:33;;;;;;;3.90;2.72;;;;;22.60;98318.00;;;;5056452;28;20098;-62
2023/06/19 03:56:00;;;;;;;3.92;2.95;;;;;22.60;98324.00;;;;5079765;28;20104;-62
2023/06/19 03:58:27;;;;;;;3.08;2.88;;;;;22.60;98328.00;;;;5081854;28;20051;-62
2023/06/19 04:00:53;;;;;;;3.80;2.72;;;;;22.70;98335.00;;;;5075912;28;20048;-62
2023/06/19 04:03:20;;;;;;;3.90;3.00;;;;;22.70;98329.00;;;;5072880;28;20044;-62
2023/06/19 04:05:47;;;;;;;4.10;3.70;;;;;22.70;98329.00;;;;5072636;28;20052;-62
2023/06/19 04:08:13;;;;;;;3.30;3.00;;;;;22.70;98336.00;;;;5072123;28;20075;-62
2023/06/19 04:10:42;;;;;;;4.32;3.42;;;;;22.80;98334.00;;;;5072058;28;20094;-62
2023/06/19 04:13:09;;;;;;;4.65;3.20;;;;;22.90;98331.00;;;;5073357;28;20044;-62
2023/06/19 04:15:37;;;;;;;3.08;2.80;;;;;23.00;98335.00;;;;5071914;28;20044;-62
2023/06/19 04:18:04;;;;;;;3.80;3.25;;;;;23.00;98331.00;;;;5055547;28;20044;-62
2023/06/19 04:20:31;;;;;;;3.78;3.35;;;;;23.00;98337.00;;;;5072016;28;20075;-62
2023/06/19 04:22:57;;;;;;;3.65;3.10;;;;;23.10;98328.00;;;;5055435;28;20046;-63
2023/06/19 04:25:24;;;;;;;2.92;2.72;;;;;23.20;98333.00;;;;5055848;28;20135;-63
2023/06/19 04:27:51;;;;;;;4.60;3.25;;;;;23.20;98322.00;;;;5073384;28;20535;-63
2023/06/19 04:30:18;;;;;;;3.60;3.10;;;;;23.30;98323.00;;;;5071880;28;20064;-62
2023/06/19 04:32:45;;;;;;;3.92;3.10;;;;;23.30;98325.00;;;;5072040;28;20044;-62
2023/06/19 04:35:11;;;;;;;3.30;3.00;;;;;23.30;98335.00;;;;5072101;28;20040;-62
2023/06/19 04:37:38;;;;;;;6.93;4.10;;;;;23.30;98332.00;;;;5071832;28;20463;-63
2023/06/19 04:40:07;;;;;;;5.75;4.57;;;;;23.40;98339.00;;;;5071746;28;20079;-62
2023/06/19 04:42:34;;;;;;;8.88;6.88;;;;;23.40;98338.00;;;;5071713;28;20490;-62
2023/06/19 04:45:00;;;;;;;3.88;3.47;;;;;23.50;98341.00;;;;5071727;28;20476;-62
2023/06/19 04:47:27;;;;;;;4.40;3.20;;;;;23.50;98333.00;;;;5072327;28;20497;-62
2023/06/19 04:50:15;;;;;;;3.58;3.28;;;;;23.50;98332.00;;;;5073515;28;20106;-62
2023/06/19 04:52:42;;;;;;;5.65;3.78;;;;;23.50;98318.00;;;;5072819;28;20095;-62
2023/06/19 04:55:10;;;;;;;3.78;3.47;;;;;23.50;98325.00;;;;5072291;28;20044;-63
2023/06/19 04:57:37;;;;;;;4.75;3.90;;;;;23.50;98321.00;;;;5073550;28;20044;-63
2023/06/19 05:00:09;;;;;;;4.20;3.83;;;;;23.50;98336.00;;;;5071754;28;20048;-63
2023/06/19 05:02:37;;;;;;;4.65;4.20;;;;;23.40;98327.00;;;;5071686;28;20097;-63
2023/06/19 05:05:04;;;;;;;5.20;4.15;;;;;23.40;98323.00;;;;5072967;28;20041;-63
2023/06/19 05:07:31;;;;;;;5.13;3.70;;;;;23.50;98328.00;;;;5072267;28;20139;-63
2023/06/19 05:09:58;;;;;;;4.45;3.85;;;;;23.50;98333.00;;;;5071179;28;20056;-63
2023/06/19 05:12:25;;;;;;;5.28;4.38;;;;;23.50;98338.00;;;;5072636;28;20498;-62
2023/06/19 05:14:51;;;;;;;5.57;4.03;;;;;23.50;98346.00;;;;5072575;28;20119;-62
2023/06/19 05:17:18;;;;;;;4.45;4.03;;;;;23.40;98343.00;;;;5071952;28;20083;-62
2023/06/19 05:19:45;;;;;;;4.10;3.70;;;;;23.40;98342.00;;;;5072117;28;20557;-63
2023/06/19 05:22:11;;;;;;;5.63;3.67;;;;;23.40;98343.00;;;;5071188;28;20142;-63
2023/06/19 05:24:38;;;;;;;4.97;4.47;;;;;23.50;98346.00;;;;5070943;28;20070;-62
2023/06/19 05:27:05;;;;;;;6.28;4.38;;;;;23.40;98345.00;;;;5072215;28;20044;-61
2023/06/19 05:29:32;;;;;;;5.30;4.07;;;;;23.30;98350.00;;;;5070545;28;20075;-61
2023/06/19 05:31:59;;;;;;;4.38;3.97;;;;;23.40;98345.00;;;;5072152;28;20041;-62
2023/06/19 05:34:25;;;;;;;5.75;4.30;;;;;23.30;98344.00;;;;5071988;28;20131;-61
2023/06/19 05:36:52;;;;;;;5.05;4.32;;;;;23.30;98337.00;;;;5071949;28;20528;-62
2023/06/19 05:39:19;;;;;;;4.75;4.30;;;;;23.20;98340.00;;;;5072968;28;20040;-62
2023/06/19 05:41:45;;;;;;;4.95;4.18;;;;;23.30;98344.00;;;;5073030;28;20049;-62
2023/06/19 05:44:15;;;;;;;6.00;4.40;;;;;23.40;98337.00;;;;5070625;28;20465;-63
2023/06/19 05:46:42;;;;;;;7.32;5.20;;;;;23.40;98333.00;;;;5072324;28;20052;-63
2023/06/19 05:49:10;;;;;;;5.65;4.50;;;;;23.50;98329.00;;;;5071925;28;20123;-62
2023/06/19 05:51:37;;;;;;;4.88;4.05;;;;;23.60;98325.00;;;;5072068;28;20055;-62
2023/06/19 05:54:04;;;;;;;5.55;4.40;;;;;23.70;98328.00;;;;5070727;28;20045;-62
2023/06/19 05:56:32;;;;;;;4.63;4.22;;;;;23.70;98322.00;;;;5071998;28;20044;-62
2023/06/19 05:59:01;;;;;;;4.38;3.75;;;;;23.70;98330.00;;;;5070588;28;20131;-63
2023/06/19 06:01:28;;;;;;;5.05;4.13;;;;;23.80;98335.00;;;;5072041;28;20040;-63
2023/06/19 06:03:56;;;;;;;5.30;4.35;;;;;23.90;98348.00;;;;5071847;28;20041;-63
2023/06/19 06:06:23;;;;;;;4.72;4.32;;;;;23.90;98339.00;;;;5070465;28;20081;-62
2023/06/19 06:08:51;;;;;;;4.63;3.97;;;;;23.90;98347.00;;;;5071293;28;20044;-62
2023/06/19 06:11:18;;;;;;;4.60;3.95;;;;;23.80;98343.00;;;;5070672;28;20044;-63
2023/06/19 06:13:45;;;;;;;4.13;3.70;;;;;24.00;98351.00;;;;5070628;28;20453;-63
2023/06/19 06:16:11;;;;;;;4.78;3.75;;;;;24.10;98346.00;;;;5071694;28;20044;-62
2023/06/19 06:18:38;;;;;;;4.78;3.60;;;;;24.20;98352.00;;;;5071649;28;20040;-62
2023/06/19 06:21:05;;;;;;;5.18;3.95;;;;;24.20;98361.00;;;;5071733;28;20413;-62
2023/06/19 06:23:31;;;;;;;4.00;3.60;;;;;24.20;98359.00;;;;5071542;28;20060;-61
2023/06/19 06:26:02;;;;;;;4.25;3.85;;;;;24.30;98363.00;;;;5070447;28;20098;-62
2023/06/19 06:28:29;;;;;;;4.93;3.83;;;;;24.30;98363.00;;;;5071531;28;20045;-63
2023/06/19 06:30:55;;;;;;;6.32;3.92;;;;;24.30;98357.00;;;;5072509;28;20525;-62
2023/06/19 06:33:23;;;;;;;4.60;4.20;;;;;24.40;98363.00;;;;5075288;28;20060;-62
2023/06/19 06:35:51;;;;;;;4.22;3.75;;;;;24.40;98355.00;;;;5074138;28;20127;-63
2023/06/19 06:38:18;;;;;;;4.85;3.78;;;;;24.50;98360.00;;;;5073893;28;20398;-63
2023/06/19 06:40:44;;;;;;;5.28;4.10;;;;;24.60;98379.00;;;;5075034;28;20072;-63
2023/06/19 06:43:11;;;;;;;5.18;4.18;;;;;24.60;98384.00;;;;5075130;28;20068;-62
2023/06/19 06:45:38;;;;;;;4.57;3.65;;;;;24.50;98380.00;;;;5075159;28;20119;-62
2023/06/19 06:48:06;;;;;;;5.97;4.05;;;;;24.50;98388.00;;;;5075081;28;20685;-60
2023/06/19 06:50:34;;;;;;;5.68;3.80;;;;;24.60;98384.00;;;;5074784;28;20495;-62
2023/06/19 06:53:01;;;;;;;6.00;3.67;;;;;24.60;98387.00;;;;5075122;28;20049;-62
2023/06/19 06:55:27;;;;;;;4.40;4.00;;;;;24.50;98388.00;;;;5073738;28;20052;-62
2023/06/19 06:57:54;;;;;;;4.10;3.67;;;;;24.60;98387.00;;;;5074949;28;20045;-62
2023/06/19 07:00:21;;;;;;;4.75;3.65;;;;;24.80;98399.00;;;;5056744;28;20138;-61
2023/06/19 07:02:50;;;;;;;4.03;3.55;;;;;24.80;98395.00;;;;5073445;28;20055;-62
2023/06/19 07:05:17;;;;;;;4.25;3.85;;;;;24.80;98407.00;;;;5074626;28;20442;-62
2023/06/19 07:07:44;;;;;;;4.40;4.00;;;;;24.80;98402.00;;;;5074678;28;20050;-61
2023/06/19 07:10:11;;;;;;;4.63;4.18;;;;;24.80;98399.00;;;;5073217;28;20040;-61
2023/06/19 07:12:48;;;;;;;4.82;3.80;;;;;25.00;98403.00;;;;5073442;28;20041;-62
2023/06/19 07:15:15;;;;;;;3.83;3.50;;;;;25.10;98412.00;;;;5056732;28;20044;-62
2023/06/19 07:17:44;;;;;;;6.18;4.18;;;;;25.10;98404.00;;;;5074634;28;20047;-62
2023/06/19 07:20:11;;;;;;;4.43;3.90;;;;;25.10;98409.00;;;;5074665;28;20047;-62
2023/06/19 07:22:38;;;;;;;4.00;3.70;;;;;25.00;98408.00;;;;5073272;28;20044;-63
2023/06/19 07:25:06;;;;;;;4.57;3.95;;;;;25.00;98410.00;;;;5074514;28;20040;-63
2023/06/19 07:27:32;;;;;;;4.32;3.92;;;;;25.00;98416.00;;;;5073388;28;20127;-63
2023/06/19 07:29:59;;;;;;;4.18;3.78;;;;;25.10;98408.00;;;;5073014;28;20075;-62
2023/06/19 07:32:26;;;;;;;6.22;4.30;;;;;25.10;98422.00;;;;5074268;28;20045;-63
2023/06/19 07:34:53;;;;;;;5.90;4.35;;;;;25.10;98413.00;;;;5074365;28;20067;-62
2023/06/19 07:37:20;;;;;;;4.80;3.90;;;;;25.20;98418.00;;;;5074370;28;20090;-61
2023/06/19 07:39:49;;;;;;;5.30;4.30;;;;;25.20;98419.00;;;;5073951;28;20395;-61
2023/06/19 07:42:17;;;;;;;4.63;3.67;;;;;25.30;98429.00;;;;5074079;28;20210;-60
2023/06/19 07:44:44;;;;;;;4.32;3.80;;;;;25.50;98424.00;;;;5072883;28;20135;-61
2023/06/19 07:47:13;;;;;;;6.43;4.10;;;;;25.50;98433.00;;;;5072494;28;20093;-60
2023/06/19 07:49:39;;;;;;;5.70;4.07;;;;;25.60;98429.00;;;;5073575;28;20124;-59
2023/06/19 07:52:09;;;;;;;5.13;4.13;;;;;25.80;98429.00;;;;5073661;28;20059;-59
2023/06/19 07:54:35;;;;;;;4.57;3.78;;;;;26.10;98429.00;;;;5062107;28;20504;-59
2023/06/19 07:57:02;;;;;;;5.63;4.32;;;;;26.10;98428.00;;;;5061152;28;20493;-59
2023/06/19 07:59:29;;;;;;;6.78;3.80;;;;;26.30;98437.00;;;;5061697;28;20045;-59
2023/06/19 08:01:55;;;;;;;6.20;3.58;;;;;26.30;98437.00;;;;5067200;28;20051;-59
2023/06/19 08:04:22;;;;;;;4.63;4.20;;;;;26.30;98438.00;;;;5072100;28;20383;-60
2023/06/19 08:06:49;;;;;;;4.47;4.07;;;;;26.30;98439.00;;;;5078585;28;20053;-58
2023/06/19 08:09:16;;;;;;;4.85;3.60;;;;;26.20;98450.00;;;;5080055;28;20052;-58
2023/06/19 08:11:42;;;;;;;5.00;3.50;;;;;26.10;98440.00;;;;5082824;28;20096;-59
2023/06/19 08:14:09;;;;;;;6.47;4.00;;;;;26.00;98433.00;;;;5075751;28;20508;-59
2023/06/19 08:16:35;;;;;;;5.05;3.80;;;;;26.20;98437.00;;;;5073182;28;20139;-58
2023/06/19 08:19:02;;;;;;;4.57;3.75;;;;;26.20;98429.00;;;;5073139;28;20123;-58
2023/06/19 08:21:29;;;;;;;7.40;3.67;;;;;26.30;98435.00;;;;5073703;28;20048;-58
2023/06/19 08:23:55;;;;;;;4.43;3.50;;;;;26.30;98437.00;;;;5073025;28;20047;-59
2023/06/19 08:26:22;;;;;;;4.47;4.07;;;;;26.30;98440.00;;;;5073253;28;20050;-58
2023/06/19 08:28:49;;;;;;;4.97;4.10;;;;;26.30;98447.00;;;;5073352;28;20394;-59
2023/06/19 08:31:16;;;;;;;5.10;3.75;;;;;26.30;98446.00;;;;5073025;28;20044;-58
2023/06/19 08:33:43;;;;;;;11.52;4.03;;;;;26.30;98447.00;;;;5072686;28;20044;-59
2023/06/19 08:36:09;;;;;;;5.57;3.70;;;;;26.20;98449.00;;;;5073370;28;20068;-59
2023/06/19 08:38:36;;;;;;;6.88;3.80;;;;;26.20;98453.00;;;;5072174;28;20099;-59
2023/06/19 08:41:03;;;;;;;8.32;3.67;;;;;26.30;98453.00;;;;5076755;28;20113;-59
2023/06/19 08:43:30;;;;;;;4.72;3.55;;;;;26.30;98454.00;;;;5080497;28;20051;-58
2023/06/19 08:46:15;;;;;;;3.47;3.17;;;;;26.30;98464.00;;;;5078098;28;20072;-59
2023/06/19 08:48:41;;;;;;;3.67;3.30;;;;;26.20;98458.00;;;;5077669;28;20041;-58
2023/06/19 08:51:09;;;;;;;6.95;3.55;;;;;26.30;98458.00;;;;5081174;28;20105;-59
2023/06/19 08:53:45;;;;;;;4.47;3.17;;;;;26.40;98451.00;;;;5078215;28;20110;-58
2023/06/19 08:56:11;;;;;;;3.10;2.80;;;;;26.60;98452.00;;;;5079172;28;20087;-59
2023/06/19 08:58:38;;;;;;;2.72;2.50;;;;;26.70;98458.00;;;;5079205;28;20130;-59
2023/06/19 09:01:05;;;;;;;3.08;2.72;;;;;26.60;98453.00;;;;5077555;28;20174;-59
2023/06/19 09:03:31;;;;;;;4.55;3.00;;;;;26.40;98454.00;;;;5079576;28;20041;-59
2023/06/19 09:06:13;;;;;;;3.00;2.70;;;;;26.40;98439.00;;;;5080008;28;20049;-60
2023/06/19 09:08:41;;;;;;;4.30;2.65;;;;;26.50;98446.00;;;;5080747;28;20040;-58
2023/06/19 09:11:07;;;;;;;4.13;2.63;;;;;26.70;98449.00;;;;5074067;28;20123;-58
2023/06/19 09:13:36;;;;;;;3.05;2.70;;;;;27.00;98458.00;;;;5072247;28;20044;-59
2023/06/19 09:16:08;;;;;;;4.90;2.42;;;;;26.90;98456.00;;;;5054503;28;20040;-60
2023/06/19 09:18:45;;;;;;;2.58;2.38;;;;;27.00;98453.00;;;;5072153;28;20062;-60
2023/06/19 09:21:21;;;;;;;4.45;2.35;;;;;26.90;98445.00;;;;5071073;28;20135;-60
2023/06/19 09:23:51;;;;;;;5.40;2.72;;;;;27.20;98445.00;;;;5071847;28;20074;-60
2023/06/19 09:26:25;;;;;;;4.57;2.67;;;;;27.30;98452.00;;;;5071174;28;20048;-60
2023/06/19 09:28:52;;;;;;;5.53;2.67;;;;;27.40;98452.00;;;;5071964;28;20493;-59
2023/06/19 09:31:18;;;;;;;4.15;2.35;;;;;27.50;98452.00;;;;5072013;28;20044;-61
2023/06/19 09:33:45;;;;;;;7.03;3.03;;;;;27.70;98449.00;;;;5072058;28;20135;-60
2023/06/19 09:36:12;;;;;;;3.78;2.45;;;;;27.80;98449.00;;;;5071837;28;20440;-61
2023/06/19 09:38:40;;;;;;;3.20;2.55;;;;;27.80;98437.00;;;;5071605;28;20044;-60
2023/06/19 09:41:11;;;;;;;3.60;2.40;;;;;27.90;98445.00;;;;5071370;28;20458;-59
2023/06/19 09:43:42;;;;;;;3.20;2.72;;;;;28.00;98442.00;;;;5071890;28;20068;-60
2023/06/19 09:46:10;;;;;;;3.42;2.47;;;;;28.20;98440.00;;;;5070910;28;20508;-61
2023/06/19 09:48:42;;;;;;;7.47;3.42;;;;;28.30;98451.00;;;;5070758;28;20105;-62
2023/06/19 09:51:19;;;;;;;2.50;2.20;;;;;28.40;98445.00;;;;5070422;28;20040;-61
2023/06/19 09:53:50;;;;;;;2.65;2.25;;;;;28.50;98451.00;;;;5070595;28;20056;-63
2023/06/19 09:56:21;;;;;;;2.40;2.20;;;;;28.50;98443.00;;;;5070743;28;20106;-60
2023/06/19 09:58:50;;;;;;;4.22;2.65;;;;;28.60;98450.00;;;;5071540;28;20049;-60
2023/06/19 10:01:19;;;;;;;3.25;2.47;;;;;28.50;98444.00;;;;5070585;28;20048;-61
2023/06/19 10:03:45;;;;;;;2.80;2.30;;;;;28.50;98442.00;;;;5071497;28;20115;-61
2023/06/19 10:06:17;;;;;;;4.45;2.63;;;;;28.60;98447.00;;;;5075967;28;20069;-61
2023/06/19 10:08:44;;;;;;;3.28;2.28;;;;;28.60;98427.00;;;;5076171;28;20405;-62
2023/06/19 10:11:11;;;;;;;2.75;2.28;;;;;28.70;98435.00;;;;5058005;28;20498;-61
2023/06/19 10:13:40;;;;;;;3.08;2.65;;;;;28.80;98441.00;;;;5075885;28;20075;-62
2023/06/19 10:16:18;;;;;;;2.50;2.30;;;;;28.70;98435.00;;;;5074985;28;20045;-61
2023/06/19 10:18:46;;;;;;;3.38;2.58;;;;;28.60;98440.00;;;;5074564;28;20055;-62
2023/06/19 10:21:17;;;;;;;3.20;2.60;;;;;28.60;98432.00;;;;5075668;28;20083;-62
2023/06/19 10:23:56;;;;;;;4.38;2.42;;;;;28.70;98426.00;;;;5075472;28;20465;-61
2023/06/19 10:26:33;;;;;;;2.50;2.30;;;;;28.80;98426.00;;;;5057889;28;20135;-62
2023/06/19 10:29:01;;;;;;;2.40;2.13;;;;;28.70;98426.00;;;;5048487;28;20044;-62
2023/06/19 10:31:30;;;;;;;4.30;2.80;;;;;28.80;98423.00;;;;5062746;28;20091;-62
2023/06/19 10:33:57;;;;;;;3.47;2.40;;;;;28.80;98425.00;;;;5063475;28;20502;-62
2023/06/19 10:36:25;;;;;;;6.68;2.88;;;;;28.70;98418.00;;;;5099773;28;20139;-62
2023/06/19 10:38:53;;;;;;;5.70;2.97;;;;;28.70;98417.00;;;;5075694;28;20053;-62
2023/06/19 10:41:22;;;;;;;2.17;1.98;;;;;28.70;98410.00;;;;5075656;28;20122;-62
2023/06/19 10:44:05;;;;;;;3.80;2.30;;;;;28.80;98410.00;;;;5075616;28;20051;-62
2023/06/19 10:46:35;;;;;;;2.55;2.15;;;;;28.70;98416.00;;;;5074610;28;20501;-62
2023/06/19 10:49:04;;;;;;;4.22;2.30;;;;;28.80;98408.00;;;;5075031;28;20501;-62
2023/06/19 10:51:34;;;;;;;2.67;2.47;;;;;28.80;98414.00;;;;5075250;28;20051;-63
2023/06/19 10:54:01;;;;;;;2.58;2.20;;;;;28.70;98410.00;;;;5075612;28;20036;-63
2023/06/19 10:56:28;;;;;;;2.53;2.30;;;;;28.80;98399.00;;;;5090931;28;20059;-63
2023/06/19 10:58:59;;;;;;;2.65;2.35;;;;;28.90;98407.00;;;;5074481;28;20048;-63
2023/06/19 11:01:40;;;;;;;4.03;2.88;;;;;28.80;98410.00;;;;5091334;28;20143;-63
2023/06/19 11:04:08;;;;;;;3.38;2.67;;;;;28.90;98409.00;;;;5074588;28;20098;-63
2023/06/19 11:06:36;;;;;;;3.40;2.78;;;;;28.80;98416.00;;;;5074309;28;20044;-62
2023/06/19 11:09:07;;;;;;;4.00;2.75;;;;;28.70;98408.00;;;;5074286;28;20445;-63
2023/06/19 11:11:38;;;;;;;2.85;2.53;;;;;28.50;98410.00;;;;5075622;28;20045;-63
2023/06/19 11:14:05;;;;;;;3.50;2.60;;;;;28.40;98424.00;;;;5075961;28;20450;-62
2023/06/19 11:16:33;;;;;;;2.88;2.63;;;;;28.30;98416.00;;;;5075072;28;20068;-63
2023/06/19 11:19:00;;;;;;;3.03;2.72;;;;;28.50;98405.00;;;;5074311;28;20052;-63
2023/06/19 11:21:38;;;;;;;3.30;2.92;;;;;28.60;98414.00;;;;5074193;28;20588;-62
2023/06/19 11:24:10;;;;;;;2.47;2.28;;;;;28.50;98399.00;;;;5074659;28;20052;-64
2023/06/19 11:26:49;;;;;;;3.92;2.25;;;;;28.60;98397.00;;;;5077443;28;20098;-64
2023/06/19 11:29:24;;;;;;;2.90;2.60;;;;;28.90;98399.00;;;;5059086;28;20139;-62
2023/06/19 11:32:03;;;;;;;5.13;2.78;;;;;28.90;98403.00;;;;5077219;28;20044;-63
2023/06/19 11:34:36;;;;;;;4.68;2.72;;;;;29.00;98402.00;;;;5075923;28;20056;-64
2023/06/19 11:37:12;;;;;;;5.07;2.72;;;;;29.10;98396.00;;;;5075565;28;20056;-63
2023/06/19 11:39:43;;;;;;;4.35;2.85;;;;;29.30;98404.00;;;;5077531;28;20055;-62
2023/06/19 11:42:10;;;;;;;4.35;2.83;;;;;29.60;98390.00;;;;5077646;28;20045;-62
2023/06/19 11:44:57;;;;;;;3.78;2.60;;;;;30.00;98388.00;;;;5077892;28;20050;-62
2023/06/19 11:47:23;;;;;;;4.03;2.80;;;;;30.10;98379.00;;;;5077098;28;20048;-63
2023/06/19 11:49:51;;;;;;;2.95;2.65;;;;;30.30;98380.00;;;;5111358;28;20048;-64
2023/06/19 11:52:17;;;;;;;2.58;2.38;;;;;30.60;98380.00;;;;5077247;28;20425;-64
2023/06/19 11:54:45;;;;;;;3.28;2.92;;;;;30.90;98375.00;;;;5077271;28;20044;-64
2023/06/19 11:57:12;;;;;;;3.75;3.00;;;;;30.80;98373.00;;;;5076505;28;20064;-63
2023/06/19 11:59:39;;;;;;;3.90;2.70;;;;;31.10;98375.00;;;;5077483;28;20421;-63
2023/06/19 12:02:06;;;;;;;2.78;2.58;;;;;31.40;98380.00;;;;5076934;28;20043;-64
2023/06/19 12:04:33;;;;;;;3.92;3.10;;;;;31.60;98380.00;;;;5077287;28;20048;-63
2023/06/19 12:07:01;;;;;;;4.05;2.80;;;;;31.70;98374.00;;;;5076842;28;20091;-64
2023/06/19 12:09:28;;;;;;;3.90;3.50;;;;;31.70;98368.00;;;;5078422;28;20084;-64
2023/06/19 12:11:54;;;;;;;2.95;2.75;;;;;31.60;98369.00;;;;5077924;28;20059;-63
2023/06/19 12:14:21;;;;;;;3.03;2.72;;;;;31.40;98373.00;;;;5077149;28;20044;-64
2023/06/19 12:16:48;;;;;;;3.00;2.80;;;;;31.50;98370.00;;;;5094711;28;20055;-64
2023/06/19 12:19:15;;;;;;;4.00;3.03;;;;;31.70;98359.00;;;;5092405;28;20053;-63
2023/06/19 12:21:46;;;;;;;3.90;3.53;;;;;31.80;98361.00;;;;5076677;28;20144;-63
2023/06/19 12:24:13;;;;;;;2.80;2.60;;;;;32.10;98358.00;;;;5076630;28;20052;-63